Elderton, Pennsylvania
Current Conditions -  °F | °C
As of 9:35 AM on Tuesday 21 Oct 2014 (Local Time) from KIDI Reporting Station
Moderate Fog Moderate Fog  
Wind Chill: 50°   Ceiling: 300
Heat Index: 50°   Visibility: 0.5mi
Dew Point: 50°   Wind: 7mph
Humidity: 100%   Direction: 260°W
Pressure: 29.91"   Gusts: NA
Location:  40.7°N, 79.34°W
Report Text: KIDI 211335Z AUTO 26006KT 1/2SM FG OVC003 10/10 A2991 RMK A01
Loading
Personal Weather Stations






























Interactive Weather Map
Tropical Storm Tracking
New forecast layout! Learn more

10-Day Weather Forecast

Advertisements
Track Severe Weather on mobile